Time;durP1;ratioP1;P1;durP2;ratioP2;P2;SDS_P1;SDS_P2;PMS_P1;PMS_P2;Temp;Humidity;BMP_temperature;BMP_pressure;BME280_temperature;BME280_humidity;BME280_pressure;Samples;Min_cycle;Max_cycle;Signal;HPM_P1;HPM_P2
2023/05/18 00:00:18;;;;;;;18.42;10.70;;;;;;;6.70;82.36;102684.81;5035005;28;20409;-52
2023/05/18 00:02:43;;;;;;;20.00;10.73;;;;;;;6.69;82.38;102685.88;5034987;28;20120;-53
2023/05/18 00:05:11;;;;;;;18.50;10.98;;;;;;;6.66;81.75;102698.19;5034596;28;20025;-54
2023/05/18 00:07:36;;;;;;;19.13;10.77;;;;;;;6.59;82.67;102694.72;5035034;28;20550;-54
2023/05/18 00:10:02;;;;;;;18.92;11.32;;;;;;;6.56;82.58;102681.41;5034610;28;20109;-54
2023/05/18 00:12:27;;;;;;;21.63;11.32;;;;;;;6.48;83.24;102690.00;5034628;28;20029;-54
2023/05/18 00:14:52;;;;;;;20.10;11.30;;;;;;;6.48;83.21;102692.75;5034632;28;20450;-54
2023/05/18 00:17:19;;;;;;;18.35;10.57;;;;;;;6.46;82.84;102690.25;5033140;28;20091;-55
2023/05/18 00:19:45;;;;;;;20.45;10.82;;;;;;;6.37;83.83;102692.47;5034786;28;20376;-55
2023/05/18 00:22:16;;;;;;;20.10;10.90;;;;;;;6.30;83.90;102688.13;5034091;28;20513;-54
2023/05/18 00:24:42;;;;;;;19.17;11.15;;;;;;;6.27;83.61;102683.09;5033171;28;20096;-55
2023/05/18 00:27:07;;;;;;;19.85;10.80;;;;;;;6.20;84.26;102689.50;5034280;28;20117;-56
2023/05/18 00:29:32;;;;;;;18.60;10.85;;;;;;;6.22;84.50;102694.78;5034157;28;20087;-56
2023/05/18 00:31:58;;;;;;;19.67;11.07;;;;;;;6.21;84.85;102682.94;5033456;28;20053;-55
2023/05/18 00:34:23;;;;;;;20.13;11.00;;;;;;;6.22;84.32;102687.38;5033573;28;20389;-56
2023/05/18 00:36:48;;;;;;;21.23;11.30;;;;;;;6.15;85.23;102691.25;5033563;28;20041;-57
2023/05/18 00:39:13;;;;;;;21.35;11.15;;;;;;;6.12;85.57;102687.06;5033653;28;20072;-55
2023/05/18 00:41:39;;;;;;;18.58;10.90;;;;;;;6.07;85.31;102689.69;5033646;28;20440;-56
2023/05/18 00:44:04;;;;;;;19.38;11.27;;;;;;;6.06;85.84;102699.00;5033577;28;20034;-54
2023/05/18 00:46:30;;;;;;;21.02;10.98;;;;;;;5.98;86.25;102691.03;5033542;28;20441;-55
2023/05/18 00:48:56;;;;;;;22.55;11.00;;;;;;;5.94;86.02;102696.16;5033594;28;20021;-49
2023/05/18 00:51:22;;;;;;;20.05;11.05;;;;;;;5.93;86.70;102688.97;5026107;28;20025;-55
2023/05/18 00:53:49;;;;;;;21.08;10.90;;;;;;;5.94;86.97;102694.22;5034071;28;20200;-54
2023/05/18 00:56:15;;;;;;;19.05;10.50;;;;;;;5.94;86.17;102693.41;5033839;28;20021;-55
2023/05/18 00:58:41;;;;;;;19.50;11.13;;;;;;;5.90;87.26;102694.91;5033103;28;20076;-55
2023/05/18 01:01:08;;;;;;;18.58;10.52;;;;;;;5.81;87.17;102688.06;5034048;28;20498;-55
2023/05/18 01:03:36;;;;;;;20.33;11.30;;;;;;;5.77;88.11;102698.66;5033472;28;20469;-55
2023/05/18 01:06:04;;;;;;;19.75;11.32;;;;;;;5.75;88.07;102692.56;5033505;28;20026;-55
2023/05/18 01:08:30;;;;;;;17.98;10.80;;;;;;;5.76;87.96;102694.22;5033622;28;20025;-56
2023/05/18 01:11:22;;;;;;;22.13;13.13;;;;;;;5.71;87.79;102696.84;5033884;28;20076;-56
2023/05/18 01:14:02;;;;;;;19.80;11.73;;;;;;;5.72;87.83;102698.50;5033416;28;20347;-55
2023/05/18 01:16:36;;;;;;;19.70;11.18;;;;;;;5.68;87.86;102703.59;5033541;28;20396;-53
2023/05/18 01:19:23;;;;;;;20.77;11.27;;;;;;;5.70;87.65;102703.41;5033629;28;20040;-55
2023/05/18 01:22:22;;;;;;;19.02;11.18;;;;;;;5.68;88.40;102702.78;5033262;28;20057;-54
2023/05/18 01:24:48;;;;;;;18.55;10.95;;;;;;;5.66;88.51;102714.00;5033001;28;20032;-54
2023/05/18 01:27:16;;;;;;;20.00;11.38;;;;;;;5.65;88.27;102706.81;5032342;28;20108;-55
2023/05/18 01:29:44;;;;;;;19.77;11.25;;;;;;;5.70;88.77;102706.13;5032685;28;20022;-56
2023/05/18 01:32:20;;;;;;;20.33;11.30;;;;;;;5.64;88.42;102705.13;5032966;28;20381;-55
2023/05/18 01:34:46;;;;;;;20.45;11.15;;;;;;;5.59;88.62;102710.44;5032457;28;20045;-54
2023/05/18 01:37:11;;;;;;;20.02;11.05;;;;;;;5.55;89.08;102712.00;5032591;28;20029;-55
2023/05/18 01:39:37;;;;;;;18.27;11.43;;;;;;;5.57;89.30;102715.34;5032434;28;20081;-54
2023/05/18 01:42:06;;;;;;;21.25;12.02;;;;;;;5.52;89.40;102707.81;5032569;28;20029;-56
2023/05/18 01:44:40;;;;;;;18.65;11.45;;;;;;;5.51;89.05;102705.25;5032428;28;20034;-54
2023/05/18 01:47:11;;;;;;;20.08;10.98;;;;;;;5.51;89.07;102700.63;5025489;28;20116;-55
2023/05/18 01:49:52;;;;;;;19.45;11.40;;;;;;;5.51;88.98;102705.25;5032505;28;20101;-55
2023/05/18 01:52:21;;;;;;;22.05;11.60;;;;;;;5.47;89.14;102708.47;5033104;28;20036;-55
2023/05/18 01:54:51;;;;;;;19.52;11.38;;;;;;;5.42;90.06;102701.97;5032434;28;20120;-55
2023/05/18 01:57:17;;;;;;;20.42;11.13;;;;;;;5.43;89.71;102706.41;5032609;28;20076;-55
2023/05/18 01:59:43;;;;;;;20.80;11.90;;;;;;;5.42;89.61;102700.06;5032500;28;20412;-54
2023/05/18 02:02:10;;;;;;;20.38;11.50;;;;;;;5.40;89.52;102699.44;5031951;28;20032;-55
2023/05/18 02:04:35;;;;;;;19.45;11.43;;;;;;;5.32;90.86;102694.25;5032138;28;20105;-55
2023/05/18 02:07:01;;;;;;;20.73;11.60;;;;;;;5.29;90.71;102701.03;5032355;28;20185;-55
2023/05/18 02:09:26;;;;;;;18.55;11.27;;;;;;;5.27;90.57;102699.56;5032390;28;20030;-55
2023/05/18 02:11:51;;;;;;;20.20;11.27;;;;;;;5.26;90.77;102695.16;5032231;28;20034;-56
2023/05/18 02:14:17;;;;;;;21.02;11.10;;;;;;;5.26;90.93;102697.91;5031137;28;20104;-56
2023/05/18 02:16:45;;;;;;;20.38;11.15;;;;;;;5.29;91.25;102697.47;5032355;28;20396;-55
2023/05/18 02:19:14;;;;;;;20.55;11.52;;;;;;;5.23;91.15;102692.84;5031178;28;20036;-53
2023/05/18 02:21:40;;;;;;;19.45;11.27;;;;;;;5.18;92.09;102695.44;5032223;28;20041;-51
2023/05/18 02:24:06;;;;;;;19.75;10.95;;;;;;;5.20;91.48;102690.53;5032441;28;20026;-54
2023/05/18 02:26:31;;;;;;;18.48;11.43;;;;;;;5.23;91.34;102692.84;5032160;28;20075;-55
2023/05/18 02:28:57;;;;;;;23.30;11.90;;;;;;;5.22;91.38;102688.41;5031361;28;20033;-54
2023/05/18 02:31:22;;;;;;;20.48;11.55;;;;;;;5.21;91.68;102690.34;5031680;28;20080;-53
2023/05/18 02:33:47;;;;;;;19.88;11.93;;;;;;;5.22;91.96;102685.69;5031483;28;20434;-55
2023/05/18 02:36:13;;;;;;;19.25;11.25;;;;;;;5.20;91.52;102688.66;5031521;28;20045;-54
2023/05/18 02:38:41;;;;;;;20.30;11.77;;;;;;;5.12;91.87;102688.94;5031830;28;20057;-57
2023/05/18 02:41:07;;;;;;;20.52;11.43;;;;;;;5.08;92.02;102683.06;5025147;28;20018;-54
2023/05/18 02:43:32;;;;;;;21.05;11.20;;;;;;;5.09;92.71;102678.41;5031491;28;20021;-57
2023/05/18 02:45:57;;;;;;;20.35;11.10;;;;;;;5.07;92.12;102680.53;5031589;28;20507;-55
2023/05/18 02:48:23;;;;;;;21.05;11.27;;;;;;;5.09;92.78;102679.25;5031617;28;20045;-55
2023/05/18 02:50:48;;;;;;;20.80;11.40;;;;;;;5.08;92.22;102682.22;5031790;28;20022;-56
2023/05/18 02:53:14;;;;;;;21.02;11.52;;;;;;;5.04;92.43;102678.25;5031767;28;20080;-54
2023/05/18 02:55:40;;;;;;;20.25;11.70;;;;;;;4.98;92.34;102674.50;5031351;28;20479;-55
2023/05/18 02:58:05;;;;;;;22.00;11.88;;;;;;;4.90;93.13;102670.13;5031254;28;20393;-55
2023/05/18 03:00:31;;;;;;;20.23;12.27;;;;;;;4.88;93.54;102677.72;5031131;28;20037;-55
2023/05/18 03:02:56;;;;;;;22.65;11.95;;;;;;;4.89;93.72;102676.66;5031650;28;20037;-54
2023/05/18 03:05:22;;;;;;;17.80;11.15;;;;;;;4.87;94.08;102676.03;5030854;28;20049;-54
2023/05/18 03:07:49;;;;;;;22.35;12.25;;;;;;;4.84;94.04;102682.81;5031378;28;20018;-55
2023/05/18 03:10:15;;;;;;;21.17;11.75;;;;;;;4.83;93.94;102683.03;5030792;28;20033;-55
2023/05/18 03:12:41;;;;;;;20.40;11.60;;;;;;;4.79;93.89;102673.56;5030201;28;20048;-55
2023/05/18 03:15:07;;;;;;;20.73;11.23;;;;;;;4.81;94.38;102685.16;5030156;28;20057;-54
2023/05/18 03:17:32;;;;;;;22.55;11.18;;;;;;;4.77;95.10;102684.75;5030594;28;20104;-53
2023/05/18 03:19:57;;;;;;;21.52;12.32;;;;;;;4.75;94.51;102681.41;5029785;28;20043;-55
2023/05/18 03:22:23;;;;;;;22.33;11.90;;;;;;;4.74;94.89;102692.59;5030755;28;20040;-55
2023/05/18 03:24:50;;;;;;;22.35;11.60;;;;;;;4.72;95.46;102690.09;5029860;28;20038;-55
2023/05/18 03:27:17;;;;;;;22.08;12.00;;;;;;;4.69;95.49;102687.78;5031084;28;20030;-53
2023/05/18 03:29:42;;;;;;;21.05;12.23;;;;;;;4.69;95.51;102688.59;5030726;28;20473;-54
2023/05/18 03:32:08;;;;;;;20.70;11.95;;;;;;;4.66;96.20;102688.22;5030614;28;20026;-55
2023/05/18 03:34:33;;;;;;;19.98;11.80;;;;;;;4.64;95.72;102696.66;5030196;28;20018;-55
2023/05/18 03:36:59;;;;;;;19.60;11.68;;;;;;;4.62;96.06;102685.06;5023978;28;20030;-55
2023/05/18 03:39:24;;;;;;;23.10;11.98;;;;;;;4.63;95.54;102683.19;5030207;28;20057;-55
2023/05/18 03:41:50;;;;;;;19.70;11.65;;;;;;;4.65;95.35;102686.53;5030526;28;20337;-55
2023/05/18 03:44:15;;;;;;;22.48;12.20;;;;;;;4.66;95.63;102686.31;5030856;28;20022;-55
2023/05/18 03:46:41;;;;;;;21.50;12.48;;;;;;;4.66;95.62;102688.22;5043873;22;20054;-54
2023/05/18 03:49:06;;;;;;;21.25;12.43;;;;;;;4.65;96.08;102683.78;5002705;28;20068;-55
2023/05/18 03:51:32;;;;;;;23.02;12.20;;;;;;;4.66;96.08;102693.69;5000791;28;20029;-55
2023/05/18 03:53:58;;;;;;;21.75;12.55;;;;;;;4.66;95.56;102689.06;5010876;28;20112;-55
2023/05/18 03:56:23;;;;;;;19.33;11.65;;;;;;;4.68;96.09;102686.91;5010664;28;20057;-55
2023/05/18 03:58:50;;;;;;;20.67;11.85;;;;;;;4.68;96.31;102692.41;5011283;28;20042;-54
2023/05/18 04:01:17;;;;;;;21.92;11.80;;;;;;;4.67;96.23;102695.38;5010541;28;20441;-55
2023/05/18 04:03:43;;;;;;;22.10;11.18;;;;;;;4.69;96.42;102687.78;5012054;28;20427;-56
2023/05/18 04:06:09;;;;;;;21.08;11.30;;;;;;;4.69;95.73;102696.00;5011954;28;20037;-55
2023/05/18 04:08:35;;;;;;;24.17;11.40;;;;;;;4.73;95.99;102699.13;5011690;28;20056;-55
2023/05/18 04:11:01;;;;;;;21.50;11.50;;;;;;;4.69;96.48;102705.06;5011774;28;20029;-55
2023/05/18 04:13:27;;;;;;;19.58;11.10;;;;;;;4.72;96.54;102697.47;5011875;28;20087;-55
2023/05/18 04:15:52;;;;;;;20.80;11.40;;;;;;;4.74;96.86;102698.09;5010513;28;20129;-55
2023/05/18 04:18:17;;;;;;;23.38;11.57;;;;;;;4.80;95.69;102699.94;5011692;28;20030;-55
2023/05/18 04:20:44;;;;;;;21.88;11.85;;;;;;;4.85;95.90;102705.59;5011606;28;20079;-55
2023/05/18 04:23:11;;;;;;;19.13;11.50;;;;;;;4.86;95.76;102715.53;5011455;28;20474;-52
2023/05/18 04:25:38;;;;;;;21.45;11.35;;;;;;;4.86;96.15;102710.03;5011661;28;20095;-56
2023/05/18 04:28:03;;;;;;;21.38;12.00;;;;;;;4.90;96.27;102710.44;5011673;28;20030;-56
2023/05/18 04:30:29;;;;;;;19.60;11.13;;;;;;;4.92;96.44;102716.50;5026874;28;20079;-55
2023/05/18 04:32:57;;;;;;;21.88;11.77;;;;;;;4.95;96.28;102714.19;5011819;28;20034;-55
2023/05/18 04:35:24;;;;;;;20.17;11.05;;;;;;;5.03;95.87;102712.22;5015539;28;20061;-55
2023/05/18 04:37:49;;;;;;;22.48;11.40;;;;;;;5.10;95.57;102713.84;5015303;28;20096;-55
2023/05/18 04:40:15;;;;;;;20.23;11.30;;;;;;;5.15;95.17;102716.75;5015343;28;20490;-54
2023/05/18 04:42:46;;;;;;;23.58;11.85;;;;;;;5.21;94.94;102719.66;5009029;28;20049;-54
2023/05/18 04:45:18;;;;;;;19.63;10.80;;;;;;;5.26;95.25;102722.59;4993891;28;20042;-55
2023/05/18 04:47:51;;;;;;;20.02;11.20;;;;;;;5.29;94.76;102717.50;4975315;28;20068;-56
2023/05/18 04:50:18;;;;;;;20.88;11.85;;;;;;;5.32;94.07;102727.19;4975850;28;20479;-55
2023/05/18 04:52:47;;;;;;;19.77;11.55;;;;;;;5.30;94.71;102719.19;4975955;28;20082;-55
2023/05/18 04:55:14;;;;;;;20.92;11.50;;;;;;;5.28;94.22;102725.97;4981881;28;20037;-54
2023/05/18 04:57:39;;;;;;;22.45;12.10;;;;;;;5.29;94.61;102719.41;4995600;28;20026;-56
2023/05/18 05:00:08;;;;;;;20.70;12.10;;;;;;;5.33;94.50;102726.13;4995648;28;20097;-52
2023/05/18 05:02:34;;;;;;;20.83;11.40;;;;;;;5.36;93.99;102724.81;4995150;28;20061;-55
2023/05/18 05:04:59;;;;;;;21.42;11.88;;;;;;;5.37;94.35;102721.88;4994215;28;20050;-55
2023/05/18 05:07:24;;;;;;;21.52;11.70;;;;;;;5.39;93.84;102724.38;4995085;28;20100;-55
2023/05/18 05:09:50;;;;;;;21.58;11.75;;;;;;;5.43;93.58;102733.84;4995217;28;20030;-55
2023/05/18 05:12:15;;;;;;;20.63;11.80;;;;;;;5.50;93.57;102737.38;4995227;28;20034;-55
2023/05/18 05:14:40;;;;;;;20.67;11.50;;;;;;;5.55;93.50;102731.22;4995254;28;20030;-55
2023/05/18 05:17:06;;;;;;;21.15;12.00;;;;;;;5.61;92.77;102736.66;4995202;28;20088;-52
2023/05/18 05:19:31;;;;;;;23.67;11.80;;;;;;;5.66;92.12;102735.97;4995278;28;20466;-55
2023/05/18 05:21:56;;;;;;;21.45;11.50;;;;;;;5.71;92.85;102733.38;4994998;28;20039;-54
2023/05/18 05:24:21;;;;;;;25.20;12.07;;;;;;;5.78;92.68;102734.13;4994876;28;20095;-55
2023/05/18 05:26:47;;;;;;;20.83;11.80;;;;;;;5.85;91.72;102731.31;4994538;28;20049;-54
2023/05/18 05:29:12;;;;;;;21.48;11.73;;;;;;;5.91;91.16;102730.41;4991629;28;20061;-54
2023/05/18 05:31:37;;;;;;;21.85;11.68;;;;;;;5.97;90.16;102733.31;4994795;28;20478;-54
2023/05/18 05:34:03;;;;;;;21.80;11.35;;;;;;;5.99;90.22;102733.94;4994740;28;20034;-54
2023/05/18 05:36:28;;;;;;;24.35;11.55;;;;;;;5.98;90.08;102733.06;4994516;28;20027;-54
2023/05/18 05:38:53;;;;;;;25.08;12.38;;;;;;;6.01;89.85;102738.16;4994442;28;20101;-54
2023/05/18 05:41:19;;;;;;;24.17;11.88;;;;;;;6.06;89.80;102732.78;4993090;28;20034;-54
2023/05/18 05:43:44;;;;;;;23.50;11.80;;;;;;;6.14;89.82;102734.41;4993814;28;20046;-55
2023/05/18 05:46:09;;;;;;;21.63;11.95;;;;;;;6.24;89.38;102728.34;4994186;28;20042;-54
2023/05/18 05:48:35;;;;;;;21.42;11.85;;;;;;;6.31;87.51;102731.03;4994395;28;20430;-54
2023/05/18 05:51:00;;;;;;;21.30;12.27;;;;;;;6.37;87.40;102730.94;4994150;28;20022;-53
2023/05/18 05:53:25;;;;;;;21.35;12.10;;;;;;;6.38;86.87;102732.63;4993912;28;20410;-54
2023/05/18 05:55:50;;;;;;;21.85;12.55;;;;;;;6.39;87.60;102736.22;4994216;28;20034;-55
2023/05/18 05:58:16;;;;;;;22.83;12.70;;;;;;;6.46;86.15;102738.88;4994141;28;20027;-54
2023/05/18 06:00:42;;;;;;;22.40;11.70;;;;;;;6.49;85.44;102733.75;4994026;28;20105;-54
2023/05/18 06:03:07;;;;;;;23.58;12.07;;;;;;;6.59;85.30;102735.09;4992737;28;20080;-54
2023/05/18 06:05:33;;;;;;;21.88;11.63;;;;;;;6.68;84.83;102728.22;4993988;28;20026;-55
2023/05/18 06:07:58;;;;;;;24.77;13.65;;;;;;;6.76;84.01;102735.28;4993767;28;20117;-53
2023/05/18 06:10:23;;;;;;;23.75;12.77;;;;;;;6.75;82.97;102731.72;4993885;28;20022;-54
2023/05/18 06:12:48;;;;;;;21.75;12.30;;;;;;;6.81;83.30;102732.66;4993840;28;20396;-54
2023/05/18 06:15:14;;;;;;;22.70;12.30;;;;;;;6.87;82.44;102737.25;4993914;28;20492;-54
2023/05/18 06:17:39;;;;;;;21.95;12.13;;;;;;;6.97;82.59;102742.19;4985218;28;20034;-55
2023/05/18 06:20:08;;;;;;;20.95;12.13;;;;;;;7.15;82.70;102742.09;4982013;28;20038;-55
2023/05/18 06:22:33;;;;;;;20.67;11.68;;;;;;;7.33;81.09;102735.69;4981846;28;20033;-54
2023/05/18 06:24:59;;;;;;;20.90;11.75;;;;;;;7.46;79.55;102739.28;4978181;28;20367;-54
2023/05/18 06:27:24;;;;;;;21.70;12.77;;;;;;;7.52;79.66;102734.72;4984224;28;20083;-55
2023/05/18 06:29:51;;;;;;;23.80;12.25;;;;;;;7.59;78.52;102746.47;4975822;28;20467;-56
2023/05/18 06:32:17;;;;;;;20.10;11.80;;;;;;;7.65;78.41;102751.00;4982661;28;20113;-57
2023/05/18 06:34:44;;;;;;;21.73;11.55;;;;;;;7.73;77.94;102745.16;4984351;28;20168;-56
2023/05/18 06:37:10;;;;;;;21.90;11.70;;;;;;;7.83;77.53;102739.03;4983384;28;20031;-55
2023/05/18 06:39:35;;;;;;;19.98;11.65;;;;;;;7.99;77.81;102744.88;4985227;28;20328;-56
2023/05/18 06:42:00;;;;;;;22.92;11.57;;;;;;;8.15;76.54;102741.38;4982210;28;20037;-56
2023/05/18 06:44:27;;;;;;;21.73;11.45;;;;;;;8.33;75.78;102747.78;4982296;28;20366;-56
2023/05/18 06:46:52;;;;;;;23.35;13.48;;;;;;;8.29;74.52;102752.97;4981834;28;20053;-55
2023/05/18 06:49:18;;;;;;;22.35;12.15;;;;;;;8.32;74.42;102746.97;4981301;28;20030;-55
2023/05/18 06:51:44;;;;;;;21.02;12.02;;;;;;;8.40;74.35;102752.09;4988516;28;20031;-53
2023/05/18 06:54:09;;;;;;;22.38;12.00;;;;;;;8.55;74.42;102750.75;4992938;28;20026;-55
2023/05/18 06:56:35;;;;;;;22.25;12.50;;;;;;;8.70;73.95;102748.31;4992329;28;20041;-56
2023/05/18 06:59:00;;;;;;;20.30;11.98;;;;;;;8.87;73.73;102744.75;4992853;28;20501;-56
2023/05/18 07:01:25;;;;;;;22.50;12.70;;;;;;;8.86;72.12;102751.34;4992965;28;20034;-55
2023/05/18 07:03:50;;;;;;;19.10;11.90;;;;;;;9.07;72.98;102757.25;4992961;28;20449;-56
2023/05/18 07:06:16;;;;;;;20.98;12.60;;;;;;;9.20;71.38;102754.16;4992898;28;20026;-56
2023/05/18 07:08:42;;;;;;;24.23;12.73;;;;;;;9.33;71.64;102759.34;4992921;28;20026;-56
2023/05/18 07:11:08;;;;;;;22.15;12.65;;;;;;;9.46;70.55;102755.41;4992778;28;20038;-56
2023/05/18 07:13:34;;;;;;;21.10;12.45;;;;;;;9.58;70.95;102760.88;4992231;28;20026;-56
2023/05/18 07:15:59;;;;;;;22.75;12.38;;;;;;;9.65;69.54;102763.44;4992728;28;20026;-57
2023/05/18 07:18:25;;;;;;;24.40;12.93;;;;;;;9.72;69.50;102753.06;4992583;28;20053;-57
2023/05/18 07:20:51;;;;;;;21.00;12.32;;;;;;;9.80;68.95;102760.94;4985542;28;20050;-57
2023/05/18 07:23:16;;;;;;;20.33;12.02;;;;;;;9.86;68.63;102755.47;4973274;28;20445;-58
2023/05/18 07:25:41;;;;;;;21.70;12.30;;;;;;;10.00;69.42;102754.00;4973298;28;20037;-58
2023/05/18 07:28:07;;;;;;;21.95;12.25;;;;;;;10.00;68.08;102756.78;4973217;28;20030;-57
2023/05/18 07:30:32;;;;;;;21.60;12.07;;;;;;;9.96;68.67;102761.13;4969579;28;20106;-59
2023/05/18 07:32:57;;;;;;;21.05;12.52;;;;;;;9.88;67.30;102767.94;4973062;28;20505;-57
2023/05/18 07:35:25;;;;;;;21.17;11.85;;;;;;;9.96;68.07;102755.59;4973026;28;20483;-58
2023/05/18 07:37:51;;;;;;;23.02;12.48;;;;;;;10.05;67.49;102767.06;4978884;28;20045;-57
2023/05/18 07:40:16;;;;;;;22.38;11.90;;;;;;;10.18;67.40;102763.91;4992198;28;20026;-57
2023/05/18 07:42:43;;;;;;;21.98;11.68;;;;;;;10.28;67.77;102769.59;4991011;28;20025;-56
2023/05/18 07:45:08;;;;;;;19.92;12.10;;;;;;;10.28;66.05;102771.53;4992277;28;20081;-57
2023/05/18 07:47:34;;;;;;;20.67;11.30;;;;;;;10.42;66.18;102772.84;4992382;28;20058;-57
2023/05/18 07:50:00;;;;;;;24.73;12.00;;;;;;;10.54;64.13;102772.69;4992465;28;20053;-57
2023/05/18 07:52:25;;;;;;;21.88;11.73;;;;;;;10.74;64.97;102769.34;4992427;28;20022;-57
2023/05/18 07:54:52;;;;;;;23.73;11.60;;;;;;;10.84;62.26;102776.91;4990911;28;20058;-57
2023/05/18 07:57:18;;;;;;;21.98;11.43;;;;;;;10.87;61.88;102781.06;4992117;28;20104;-57
2023/05/18 07:59:43;;;;;;;22.92;11.38;;;;;;;10.92;61.71;102779.19;4976120;28;20109;-57
2023/05/18 08:02:09;;;;;;;20.70;11.75;;;;;;;10.97;61.47;102789.50;4971016;28;20482;-56
2023/05/18 08:04:34;;;;;;;20.88;10.80;;;;;;;10.98;61.09;102790.34;4970729;28;20035;-56
2023/05/18 08:07:00;;;;;;;22.20;11.13;;;;;;;10.84;60.75;102792.69;4972743;28;20062;-57
2023/05/18 08:09:26;;;;;;;20.52;11.25;;;;;;;10.80;60.76;102784.06;4974522;28;20081;-57
2023/05/18 08:11:52;;;;;;;21.63;10.93;;;;;;;10.82;61.25;102786.56;4974543;28;20479;-56
2023/05/18 08:14:17;;;;;;;19.95;10.80;;;;;;;10.99;60.34;102792.03;4972889;28;20334;-57
2023/05/18 08:16:43;;;;;;;22.20;10.63;;;;;;;11.19;60.24;102786.66;4973067;28;20494;-57
2023/05/18 08:19:08;;;;;;;21.33;10.70;;;;;;;11.38;59.14;102791.84;4974162;28;20030;-56
2023/05/18 08:21:33;;;;;;;20.58;11.10;;;;;;;11.43;58.81;102793.81;4974399;28;20106;-56
2023/05/18 08:23:59;;;;;;;19.20;10.82;;;;;;;11.55;58.97;102795.31;4974103;28;20031;-57
2023/05/18 08:26:25;;;;;;;19.13;10.82;;;;;;;11.76;59.27;102784.34;4974227;28;20110;-55
2023/05/18 08:28:51;;;;;;;19.30;10.45;;;;;;;11.88;57.32;102780.53;4974285;28;20482;-56
2023/05/18 08:31:16;;;;;;;19.38;10.35;;;;;;;11.88;57.31;102778.63;4974132;28;20041;-59
2023/05/18 08:33:41;;;;;;;22.40;10.98;;;;;;;11.87;57.99;102768.63;4974175;28;20026;-60
2023/05/18 08:36:07;;;;;;;21.48;11.32;;;;;;;11.85;57.62;102776.38;4973814;28;20453;-61
2023/05/18 08:38:33;;;;;;;20.63;11.02;;;;;;;12.12;57.49;102765.19;4974368;28;20047;-61
2023/05/18 08:41:34;;;;;;;23.08;11.43;;;;;;;12.38;56.17;102778.31;4974500;28;20538;-60
2023/05/18 08:44:08;;;;;;;20.92;11.57;;;;;;;12.39;55.32;102771.69;4942419;28;20050;-60
2023/05/18 08:46:38;;;;;;;21.10;10.85;;;;;;;12.33;56.29;102768.88;4973979;28;20074;-60
2023/05/18 08:49:04;;;;;;;21.58;10.65;;;;;;;12.27;55.53;102772.75;4974048;28;20041;-59
2023/05/18 08:51:33;;;;;;;21.38;10.90;;;;;;;12.13;55.69;102766.03;4973694;28;20081;-60
2023/05/18 08:53:59;;;;;;;23.52;10.75;;;;;;;12.20;55.59;102766.59;4973721;28;20050;-60
2023/05/18 08:56:25;;;;;;;20.63;10.60;;;;;;;11.91;54.74;102769.75;4976050;28;20038;-60
2023/05/18 08:58:54;;;;;;;21.40;11.05;;;;;;;12.01;55.55;102766.25;4993302;28;20034;-59
2023/05/18 09:01:21;;;;;;;20.30;10.55;;;;;;;12.14;53.84;102767.69;4988586;28;20274;-57
2023/05/18 09:03:50;;;;;;;21.35;10.98;;;;;;;12.43;55.00;102761.72;4978420;28;20093;-58
2023/05/18 09:06:17;;;;;;;20.90;11.25;;;;;;;12.41;52.67;102769.47;4973204;28;20050;-60
2023/05/18 09:08:44;;;;;;;22.38;10.85;;;;;;;12.19;54.15;102759.38;4972985;28;20066;-62
2023/05/18 09:11:12;;;;;;;20.27;10.88;;;;;;;12.20;53.98;102755.50;4971540;28;20093;-59
2023/05/18 09:13:37;;;;;;;21.77;10.73;;;;;;;12.17;53.38;102756.88;4973617;28;20035;-60
2023/05/18 09:16:03;;;;;;;19.23;9.57;;;;;;;12.53;53.37;102747.88;4972082;28;20042;-59
2023/05/18 09:18:28;;;;;;;22.77;10.55;;;;;;;12.83;52.92;102751.84;4972755;28;20031;-58
2023/05/18 09:20:53;;;;;;;18.50;9.82;;;;;;;13.12;50.96;102748.53;4973551;28;20536;-61
2023/05/18 09:23:19;;;;;;;20.58;10.07;;;;;;;13.47;50.09;102748.81;4973132;28;20037;-61
2023/05/18 09:25:48;;;;;;;21.70;11.00;;;;;;;13.39;49.14;102751.06;4972544;28;20034;-57
2023/05/18 09:28:35;;;;;;;20.92;11.05;;;;;;;12.98;50.29;102739.06;4972402;28;20034;-58
2023/05/18 09:31:00;;;;;;;20.55;10.65;;;;;;;13.01;50.83;102749.63;4971958;28;20022;-59
2023/05/18 09:33:32;;;;;;;20.88;10.70;;;;;;;12.88;50.35;102743.50;4973693;28;20395;-59
2023/05/18 09:35:58;;;;;;;19.27;10.98;;;;;;;12.83;50.34;102740.72;4973652;28;20035;-58
2023/05/18 09:38:23;;;;;;;21.33;10.48;;;;;;;13.03;51.20;102737.13;4973262;28;20423;-60
2023/05/18 09:40:49;;;;;;;19.88;10.10;;;;;;;13.34;50.23;102733.50;4973128;28;20030;-59
2023/05/18 09:43:18;;;;;;;23.33;10.70;;;;;;;13.46;49.10;102739.66;4972979;28;20042;-60
2023/05/18 09:45:46;;;;;;;20.48;10.43;;;;;;;13.64;48.98;102743.81;4973161;28;20038;-60
2023/05/18 09:48:13;;;;;;;23.17;10.65;;;;;;;13.51;47.81;102747.16;4973026;28;20070;-58
2023/05/18 09:50:38;;;;;;;19.95;10.48;;;;;;;13.76;48.89;102740.72;4973140;28;20113;-60
2023/05/18 09:53:08;;;;;;;20.08;10.23;;;;;;;14.13;48.31;102731.16;4972753;28;20406;-59
2023/05/18 09:55:37;;;;;;;23.00;10.77;;;;;;;14.51;47.85;102737.09;4971529;28;20034;-59
2023/05/18 09:58:03;;;;;;;22.63;11.15;;;;;;;14.80;46.44;102735.56;4972952;28;20081;-60
2023/05/18 10:00:28;;;;;;;20.50;11.02;;;;;;;14.88;45.81;102731.34;4972575;28;20042;-60
2023/05/18 10:02:55;;;;;;;21.23;11.18;;;;;;;14.96;45.81;102734.34;4972889;28;20027;-60
2023/05/18 10:05:32;;;;;;;19.92;11.10;;;;;;;14.74;45.23;102723.59;4969335;28;20026;-58
2023/05/18 10:07:58;;;;;;;20.70;10.65;;;;;;;14.87;46.29;102715.72;4971307;28;20046;-59
2023/05/18 10:10:30;;;;;;;20.90;11.75;;;;;;;15.11;45.94;102730.56;4972501;28;20041;-59
2023/05/18 10:12:57;;;;;;;23.17;11.55;;;;;;;14.91;43.73;102725.19;4973069;28;20041;-57
2023/05/18 10:15:23;;;;;;;20.15;11.30;;;;;;;14.57;45.00;102715.63;4970714;28;20109;-59
2023/05/18 10:17:53;;;;;;;21.60;11.35;;;;;;;14.73;46.51;102724.75;4972469;28;20043;-61
2023/05/18 10:20:22;;;;;;;20.17;10.88;;;;;;;14.75;45.38;102716.09;4972553;28;20038;-61
2023/05/18 10:22:49;;;;;;;22.10;10.77;;;;;;;14.95;46.56;102720.69;4972759;28;20380;-60
2023/05/18 10:25:24;;;;;;;18.80;10.80;;;;;;;15.08;45.59;102708.88;4972473;28;20466;-60
2023/05/18 10:27:55;;;;;;;20.00;11.05;;;;;;;15.13;45.57;102708.00;4972298;28;20035;-60
2023/05/18 10:30:21;;;;;;;22.20;11.30;;;;;;;14.98;45.61;102703.38;4971718;28;20114;-60
2023/05/18 10:32:48;;;;;;;22.23;12.00;;;;;;;14.64;46.54;102709.75;4972221;28;20047;-58
2023/05/18 10:35:14;;;;;;;20.95;11.50;;;;;;;14.40;46.93;102721.56;4972230;28;20038;-55
2023/05/18 10:37:47;;;;;;;22.27;10.95;;;;;;;14.61;46.03;102704.75;4972073;28;20027;-55
2023/05/18 10:40:16;;;;;;;18.95;11.10;;;;;;;14.87;45.30;102701.78;4972111;28;20410;-59
2023/05/18 10:42:44;;;;;;;22.10;12.25;;;;;;;14.71;45.60;102701.91;4971971;28;20030;-58
2023/05/18 10:45:09;;;;;;;21.33;11.07;;;;;;;14.81;45.99;102703.78;4970341;28;20031;-57
2023/05/18 10:47:38;;;;;;;21.80;11.55;;;;;;;14.47;45.32;102708.16;4971080;28;20181;-58
2023/05/18 10:50:04;;;;;;;21.88;11.13;;;;;;;14.20;45.68;102700.22;4971906;28;20030;-58
2023/05/18 10:52:31;;;;;;;22.55;11.45;;;;;;;14.23;46.65;102696.84;4972182;28;20069;-58
2023/05/18 10:54:59;;;;;;;21.10;10.50;;;;;;;13.89;46.54;102692.81;4971824;28;20058;-58
2023/05/18 10:57:29;;;;;;;20.90;11.00;;;;;;;13.81;47.27;102698.97;4970212;28;20421;-58
2023/05/18 10:59:56;;;;;;;20.17;10.45;;;;;;;13.97;48.46;102685.84;4971856;28;20031;-58
2023/05/18 11:02:22;;;;;;;23.45;11.05;;;;;;;14.25;46.37;102696.59;4971599;28;20117;-59
2023/05/18 11:04:48;;;;;;;19.52;10.27;;;;;;;14.34;46.71;102679.00;4972186;28;20049;-58
2023/05/18 11:07:14;;;;;;;20.05;10.80;;;;;;;14.49;46.80;102685.59;4971734;28;20031;-58
2023/05/18 11:09:41;;;;;;;18.08;10.10;;;;;;;14.57;44.92;102681.34;4971625;28;20027;-59
2023/05/18 11:12:12;;;;;;;21.63;10.50;;;;;;;14.40;43.83;102678.97;4986208;28;20030;-58